sensor_id;sensor_type;location;lat;lon;timestamp;pressure;altitude;pressure_sealevel;temperature;humidity
66176;BME280;52977;44.816;20.538;2023-05-21T00:01:46;99632.53;;;18.20;76.58
66176;BME280;52977;44.816;20.538;2023-05-21T00:04:13;99610.75;;;18.15;76.75
66176;BME280;52977;44.816;20.538;2023-05-21T00:06:40;99575.06;;;17.72;77.03
66176;BME280;52977;44.816;20.538;2023-05-21T00:09:06;99563.50;;;17.63;77.10
66176;BME280;52977;44.816;20.538;2023-05-21T00:11:32;99591.41;;;17.84;76.93
66176;BME280;52977;44.816;20.538;2023-05-21T00:13:57;99587.88;;;17.87;76.89
66176;BME280;52977;44.816;20.538;2023-05-21T00:16:23;99626.41;;;18.03;77.26
66176;BME280;52977;44.816;20.538;2023-05-21T00:18:49;99589.41;;;17.54;78.22
66176;BME280;52977;44.816;20.538;2023-05-21T00:21:16;99600.94;;;17.60;78.55
66176;BME280;52977;44.816;20.538;2023-05-21T00:23:44;99578.59;;;17.42;78.66
66176;BME280;52977;44.816;20.538;2023-05-21T00:26:12;99609.69;;;17.92;77.91
66176;BME280;52977;44.816;20.538;2023-05-21T00:28:40;99566.53;;;17.81;76.49
66176;BME280;52977;44.816;20.538;2023-05-21T00:31:06;99538.94;;;17.54;75.83
66176;BME280;52977;44.816;20.538;2023-05-21T00:33:31;99596.66;;;17.93;76.31
66176;BME280;52977;44.816;20.538;2023-05-21T00:35:58;99573.22;;;17.83;75.43
66176;BME280;52977;44.816;20.538;2023-05-21T00:38:23;99602.28;;;18.00;75.61
66176;BME280;52977;44.816;20.538;2023-05-21T00:40:52;99565.81;;;17.57;76.85
66176;BME280;52977;44.816;20.538;2023-05-21T00:43:17;99599.34;;;17.89;76.47
66176;BME280;52977;44.816;20.538;2023-05-21T00:45:44;99609.53;;;18.12;75.95
66176;BME280;52977;44.816;20.538;2023-05-21T00:48:12;99539.53;;;17.67;76.44
66176;BME280;52977;44.816;20.538;2023-05-21T00:50:39;99548.38;;;17.83;76.59
66176;BME280;52977;44.816;20.538;2023-05-21T00:53:06;99507.16;;;17.37;76.84
66176;BME280;52977;44.816;20.538;2023-05-21T00:55:36;99540.06;;;17.49;77.66
66176;BME280;52977;44.816;20.538;2023-05-21T00:58:02;99597.66;;;17.81;78.01
66176;BME280;52977;44.816;20.538;2023-05-21T01:00:37;99593.28;;;17.76;77.45
66176;BME280;52977;44.816;20.538;2023-05-21T01:03:05;99595.22;;;17.76;77.38
66176;BME280;52977;44.816;20.538;2023-05-21T01:05:30;99589.88;;;17.60;77.55
66176;BME280;52977;44.816;20.538;2023-05-21T01:07:57;99596.28;;;17.68;77.98
66176;BME280;52977;44.816;20.538;2023-05-21T01:10:24;99590.25;;;17.58;78.76
66176;BME280;52977;44.816;20.538;2023-05-21T01:12:51;99593.53;;;17.68;78.28
66176;BME280;52977;44.816;20.538;2023-05-21T01:15:17;99587.91;;;17.60;78.59
66176;BME280;52977;44.816;20.538;2023-05-21T01:17:43;99587.06;;;17.56;78.85
66176;BME280;52977;44.816;20.538;2023-05-21T01:20:15;99589.28;;;17.74;78.40
66176;BME280;52977;44.816;20.538;2023-05-21T01:22:54;99587.91;;;17.60;78.65
66176;BME280;52977;44.816;20.538;2023-05-21T01:25:23;99586.66;;;17.54;79.49
66176;BME280;52977;44.816;20.538;2023-05-21T01:27:52;99553.63;;;17.62;78.44
66176;BME280;52977;44.816;20.538;2023-05-21T01:30:18;99573.22;;;17.83;77.72
66176;BME280;52977;44.816;20.538;2023-05-21T01:32:59;99588.81;;;17.95;78.11
66176;BME280;52977;44.816;20.538;2023-05-21T01:35:46;99586.31;;;17.59;79.04
66176;BME280;52977;44.816;20.538;2023-05-21T01:38:48;99586.44;;;17.67;78.88
66176;BME280;52977;44.816;20.538;2023-05-21T01:41:17;99513.56;;;16.91;80.73
66176;BME280;52977;44.816;20.538;2023-05-21T01:43:45;99571.38;;;17.34;80.85
66176;BME280;52977;44.816;20.538;2023-05-21T01:46:14;99547.31;;;17.07;82.07
66176;BME280;52977;44.816;20.538;2023-05-21T01:48:42;99571.25;;;17.00;82.45
66176;BME280;52977;44.816;20.538;2023-05-21T01:51:08;99592.53;;;17.26;82.49
66176;BME280;52977;44.816;20.538;2023-05-21T01:53:34;99565.16;;;17.14;82.54
66176;BME280;52977;44.816;20.538;2023-05-21T01:56:00;99579.31;;;17.12;83.13
66176;BME280;52977;44.816;20.538;2023-05-21T01:58:27;99571.97;;;16.97;83.88
66176;BME280;52977;44.816;20.538;2023-05-21T02:03:33;99567.19;;;17.17;83.65
66176;BME280;52977;44.816;20.538;2023-05-21T02:05:59;99554.16;;;17.17;83.21
66176;BME280;52977;44.816;20.538;2023-05-21T02:08:25;99561.75;;;17.24;83.06
66176;BME280;52977;44.816;20.538;2023-05-21T02:10:53;99515.09;;;17.12;82.56
66176;BME280;52977;44.816;20.538;2023-05-21T02:13:18;99557.84;;;17.52;81.79
66176;BME280;52977;44.816;20.538;2023-05-21T02:15:49;99559.00;;;17.51;81.28
66176;BME280;52977;44.816;20.538;2023-05-21T02:18:16;99529.50;;;17.28;81.53
66176;BME280;52977;44.816;20.538;2023-05-21T02:20:43;99563.25;;;17.45;82.13
66176;BME280;52977;44.816;20.538;2023-05-21T02:23:09;99560.44;;;17.14;83.19
66176;BME280;52977;44.816;20.538;2023-05-21T02:25:35;99550.91;;;17.35;82.49
66176;BME280;52977;44.816;20.538;2023-05-21T02:28:01;99579.22;;;17.58;81.10
66176;BME280;52977;44.816;20.538;2023-05-21T02:30:27;99532.91;;;17.45;80.67
66176;BME280;52977;44.816;20.538;2023-05-21T02:32:54;99549.81;;;17.70;79.71
66176;BME280;52977;44.816;20.538;2023-05-21T02:35:20;99568.22;;;17.62;80.82
66176;BME280;52977;44.816;20.538;2023-05-21T02:37:45;99564.78;;;17.69;80.65
66176;BME280;52977;44.816;20.538;2023-05-21T02:40:11;99567.22;;;17.74;80.31
66176;BME280;52977;44.816;20.538;2023-05-21T02:42:38;99449.56;;;16.78;80.53
66176;BME280;52977;44.816;20.538;2023-05-21T02:45:09;99565.53;;;17.39;82.12
66176;BME280;52977;44.816;20.538;2023-05-21T02:47:36;99524.22;;;17.16;82.69
66176;BME280;52977;44.816;20.538;2023-05-21T02:50:07;99569.41;;;17.61;81.14
66176;BME280;52977;44.816;20.538;2023-05-21T02:52:36;99474.63;;;17.19;80.41
66176;BME280;52977;44.816;20.538;2023-05-21T02:55:02;99565.69;;;17.76;80.59
66176;BME280;52977;44.816;20.538;2023-05-21T02:57:28;99552.38;;;17.29;82.88
66176;BME280;52977;44.816;20.538;2023-05-21T02:59:54;99557.31;;;17.16;83.18
66176;BME280;52977;44.816;20.538;2023-05-21T03:02:20;99568.16;;;17.05;84.39
66176;BME280;52977;44.816;20.538;2023-05-21T03:04:45;99562.63;;;17.05;84.11
66176;BME280;52977;44.816;20.538;2023-05-21T03:07:12;99528.38;;;17.06;83.80
66176;BME280;52977;44.816;20.538;2023-05-21T03:09:42;99525.97;;;17.28;82.50
66176;BME280;52977;44.816;20.538;2023-05-21T03:12:08;99543.38;;;17.32;82.29
66176;BME280;52977;44.816;20.538;2023-05-21T03:14:34;99555.34;;;17.16;83.18
66176;BME280;52977;44.816;20.538;2023-05-21T03:17:00;99579.75;;;17.14;83.97
66176;BME280;52977;44.816;20.538;2023-05-21T03:19:31;99580.19;;;17.43;83.12
66176;BME280;52977;44.816;20.538;2023-05-21T03:22:04;99546.94;;;17.09;83.96
66176;BME280;52977;44.816;20.538;2023-05-21T03:24:33;99503.56;;;16.83;83.58
66176;BME280;52977;44.816;20.538;2023-05-21T03:27:00;99573.81;;;17.39;83.12
66176;BME280;52977;44.816;20.538;2023-05-21T03:29:26;99571.56;;;17.48;82.54
66176;BME280;52977;44.816;20.538;2023-05-21T03:31:53;99555.22;;;17.09;83.48
66176;BME280;52977;44.816;20.538;2023-05-21T03:34:19;99579.16;;;17.28;82.80
66176;BME280;52977;44.816;20.538;2023-05-21T03:36:45;99568.50;;;17.53;82.09
66176;BME280;52977;44.816;20.538;2023-05-21T03:39:11;99585.34;;;17.45;82.59
66176;BME280;52977;44.816;20.538;2023-05-21T03:41:38;99581.03;;;17.47;82.76
66176;BME280;52977;44.816;20.538;2023-05-21T03:44:08;99591.13;;;17.63;81.84
66176;BME280;52977;44.816;20.538;2023-05-21T03:46:45;99598.19;;;17.64;81.97
66176;BME280;52977;44.816;20.538;2023-05-21T03:49:24;99527.16;;;17.30;81.18
66176;BME280;52977;44.816;20.538;2023-05-21T03:51:53;99591.59;;;17.68;81.35
66176;BME280;52977;44.816;20.538;2023-05-21T03:54:19;99593.34;;;17.53;81.66
66176;BME280;52977;44.816;20.538;2023-05-21T03:56:46;99574.88;;;17.31;82.32
66176;BME280;52977;44.816;20.538;2023-05-21T03:59:12;99594.69;;;17.40;82.69
66176;BME280;52977;44.816;20.538;2023-05-21T04:01:37;99570.06;;;17.01;83.85
66176;BME280;52977;44.816;20.538;2023-05-21T04:04:04;99590.94;;;17.25;83.66
66176;BME280;52977;44.816;20.538;2023-05-21T04:06:31;99610.28;;;17.29;83.96
66176;BME280;52977;44.816;20.538;2023-05-21T04:08:56;99602.63;;;17.41;83.54
66176;BME280;52977;44.816;20.538;2023-05-21T04:11:22;99599.50;;;17.43;83.04
66176;BME280;52977;44.816;20.538;2023-05-21T04:13:48;99583.47;;;17.52;82.01
66176;BME280;52977;44.816;20.538;2023-05-21T04:16:13;99594.00;;;17.73;81.26
66176;BME280;52977;44.816;20.538;2023-05-21T04:18:45;99606.38;;;17.83;80.94
66176;BME280;52977;44.816;20.538;2023-05-21T04:21:12;99606.91;;;17.92;80.56
66176;BME280;52977;44.816;20.538;2023-05-21T04:23:38;99565.94;;;17.68;80.25
66176;BME280;52977;44.816;20.538;2023-05-21T04:26:11;99606.53;;;17.94;80.02
66176;BME280;52977;44.816;20.538;2023-05-21T04:28:40;99609.75;;;17.96;80.21
66176;BME280;52977;44.816;20.538;2023-05-21T04:31:08;99619.38;;;18.09;80.00
66176;BME280;52977;44.816;20.538;2023-05-21T04:33:34;99617.81;;;18.12;79.97
66176;BME280;52977;44.816;20.538;2023-05-21T04:36:01;99587.16;;;17.90;79.85
66176;BME280;52977;44.816;20.538;2023-05-21T04:38:28;99618.13;;;18.07;80.19
66176;BME280;52977;44.816;20.538;2023-05-21T04:40:54;99615.66;;;17.98;80.43
66176;BME280;52977;44.816;20.538;2023-05-21T04:43:20;99618.81;;;17.97;80.94
66176;BME280;52977;44.816;20.538;2023-05-21T04:45:55;99606.38;;;17.83;81.41
66176;BME280;52977;44.816;20.538;2023-05-21T04:48:22;99598.38;;;17.74;82.09
66176;BME280;52977;44.816;20.538;2023-05-21T04:50:53;99563.91;;;17.65;81.64
66176;BME280;52977;44.816;20.538;2023-05-21T04:53:22;99617.28;;;17.99;81.39
66176;BME280;52977;44.816;20.538;2023-05-21T04:55:47;99564.38;;;17.70;80.79
66176;BME280;52977;44.816;20.538;2023-05-21T04:58:13;99585.09;;;17.84;80.73
66176;BME280;52977;44.816;20.538;2023-05-21T05:00:42;99580.19;;;17.73;80.82
66176;BME280;52977;44.816;20.538;2023-05-21T05:03:14;99606.91;;;17.92;80.62
66176;BME280;52977;44.816;20.538;2023-05-21T05:05:42;99611.28;;;17.93;80.28
66176;BME280;52977;44.816;20.538;2023-05-21T05:08:07;99564.38;;;17.70;80.27
66176;BME280;52977;44.816;20.538;2023-05-21T05:10:34;99588.31;;;17.89;80.15
66176;BME280;52977;44.816;20.538;2023-05-21T05:12:59;99613.72;;;17.99;80.57
66176;BME280;52977;44.816;20.538;2023-05-21T05:15:26;99607.09;;;18.07;79.79
66176;BME280;52977;44.816;20.538;2023-05-21T05:17:52;99617.06;;;18.15;79.66
66176;BME280;52977;44.816;20.538;2023-05-21T05:20:18;99615.16;;;18.19;78.92
66176;BME280;52977;44.816;20.538;2023-05-21T05:22:44;99597.34;;;18.17;78.53
66176;BME280;52977;44.816;20.538;2023-05-21T05:25:11;99587.53;;;18.19;78.33
66176;BME280;52977;44.816;20.538;2023-05-21T05:27:37;99564.94;;;18.10;78.22
66176;BME280;52977;44.816;20.538;2023-05-21T05:30:03;99610.75;;;18.15;79.31
66176;BME280;52977;44.816;20.538;2023-05-21T05:32:30;99607.94;;;18.11;79.78
66176;BME280;52977;44.816;20.538;2023-05-21T05:34:57;99609.53;;;18.12;80.04
66176;BME280;52977;44.816;20.538;2023-05-21T05:37:24;99608.53;;;18.27;79.64
66176;BME280;52977;44.816;20.538;2023-05-21T05:39:50;99605.47;;;18.36;78.95
66176;BME280;52977;44.816;20.538;2023-05-21T05:42:16;99590.47;;;18.34;78.82
66176;BME280;52977;44.816;20.538;2023-05-21T05:44:42;99610.78;;;18.52;78.22
66176;BME280;52977;44.816;20.538;2023-05-21T05:47:08;99614.31;;;18.49;78.47
66176;BME280;52977;44.816;20.538;2023-05-21T05:49:37;99581.44;;;18.40;78.49
66176;BME280;52977;44.816;20.538;2023-05-21T05:52:04;99582.69;;;18.47;78.21
66176;BME280;52977;44.816;20.538;2023-05-21T05:54:32;99606.56;;;18.62;78.23
66176;BME280;52977;44.816;20.538;2023-05-21T05:56:57;99613.38;;;18.72;78.17
66176;BME280;52977;44.816;20.538;2023-05-21T05:59:24;99499.75;;;18.05;77.83
66176;BME280;52977;44.816;20.538;2023-05-21T06:01:54;99612.28;;;18.84;77.78
66176;BME280;52977;44.816;20.538;2023-05-21T06:04:20;99558.53;;;18.40;77.88
66176;BME280;52977;44.816;20.538;2023-05-21T06:06:46;99566.47;;;18.41;78.47
66176;BME280;52977;44.816;20.538;2023-05-21T06:09:12;99617.22;;;18.64;78.55
66176;BME280;52977;44.816;20.538;2023-05-21T06:11:40;99619.66;;;18.69;79.30
66176;BME280;52977;44.816;20.538;2023-05-21T06:14:06;99614.22;;;18.79;78.62
66176;BME280;52977;44.816;20.538;2023-05-21T06:16:32;99589.91;;;18.58;78.60
66176;BME280;52977;44.816;20.538;2023-05-21T06:18:58;99575.19;;;18.47;78.83
66176;BME280;52977;44.816;20.538;2023-05-21T06:21:25;99601.81;;;18.62;79.27
66176;BME280;52977;44.816;20.538;2023-05-21T06:23:52;99624.47;;;18.75;79.21
66176;BME280;52977;44.816;20.538;2023-05-21T06:26:19;99625.25;;;18.76;80.21
66176;BME280;52977;44.816;20.538;2023-05-21T06:28:48;99566.16;;;18.50;79.19
66176;BME280;52977;44.816;20.538;2023-05-21T06:31:14;99584.13;;;18.71;79.07
66176;BME280;52977;44.816;20.538;2023-05-21T06:33:42;99623.09;;;18.96;79.35
66176;BME280;52977;44.816;20.538;2023-05-21T06:36:09;99586.31;;;18.92;78.84
66176;BME280;52977;44.816;20.538;2023-05-21T06:38:35;99620.47;;;19.10;79.54
66176;BME280;52977;44.816;20.538;2023-05-21T06:41:01;99615.78;;;19.18;78.18
66176;BME280;52977;44.816;20.538;2023-05-21T06:43:42;99578.47;;;18.98;77.65
66176;BME280;52977;44.816;20.538;2023-05-21T06:46:27;99606.81;;;19.32;76.33
66176;BME280;52977;44.816;20.538;2023-05-21T06:48:53;99605.69;;;19.40;77.40
66176;BME280;52977;44.816;20.538;2023-05-21T06:51:19;99604.13;;;19.46;77.64
66176;BME280;52977;44.816;20.538;2023-05-21T06:53:46;99601.81;;;19.52;75.86
66176;BME280;52977;44.816;20.538;2023-05-21T06:56:13;99593.47;;;19.49;75.94
66176;BME280;52977;44.816;20.538;2023-05-21T06:58:42;99585.91;;;19.38;73.14
66176;BME280;52977;44.816;20.538;2023-05-21T07:01:09;99594.69;;;19.51;73.83
66176;BME280;52977;44.816;20.538;2023-05-21T07:03:37;99596.63;;;19.47;72.60
66176;BME280;52977;44.816;20.538;2023-05-21T07:06:03;99591.84;;;19.40;72.83
66176;BME280;52977;44.816;20.538;2023-05-21T07:08:29;99600.59;;;19.46;73.25
66176;BME280;52977;44.816;20.538;2023-05-21T07:10:56;99542.97;;;19.07;73.30
66176;BME280;52977;44.816;20.538;2023-05-21T07:13:23;99563.28;;;19.25;72.39
66176;BME280;52977;44.816;20.538;2023-05-21T07:15:48;99604.56;;;19.49;73.28
66176;BME280;52977;44.816;20.538;2023-05-21T07:18:14;99597.84;;;19.50;72.28
66176;BME280;52977;44.816;20.538;2023-05-21T07:20:41;99593.91;;;19.54;73.65
66176;BME280;52977;44.816;20.538;2023-05-21T07:23:10;99583.66;;;19.58;73.35
66176;BME280;52977;44.816;20.538;2023-05-21T07:25:35;99550.72;;;19.39;73.87
66176;BME280;52977;44.816;20.538;2023-05-21T07:28:01;99596.75;;;19.69;73.10
66176;BME280;52977;44.816;20.538;2023-05-21T07:30:27;99538.00;;;19.30;70.78
66176;BME280;52977;44.816;20.538;2023-05-21T07:32:53;99539.28;;;19.44;70.06
66176;BME280;52977;44.816;20.538;2023-05-21T07:35:19;99580.56;;;19.74;68.32
66176;BME280;52977;44.816;20.538;2023-05-21T07:37:45;99587.38;;;19.84;67.43
66176;BME280;52977;44.816;20.538;2023-05-21T07:40:11;99596.97;;;20.01;68.22
66176;BME280;52977;44.816;20.538;2023-05-21T07:42:38;99546.63;;;19.81;68.54
66176;BME280;52977;44.816;20.538;2023-05-21T07:45:05;99580.34;;;20.05;68.63
66176;BME280;52977;44.816;20.538;2023-05-21T07:47:38;99556.59;;;19.93;68.96
66176;BME280;52977;44.816;20.538;2023-05-21T07:50:05;99565.31;;;19.98;68.60
66176;BME280;52977;44.816;20.538;2023-05-21T07:52:31;99556.59;;;19.93;67.61
66176;BME280;52977;44.816;20.538;2023-05-21T07:54:59;99585.94;;;20.15;68.66
66176;BME280;52977;44.816;20.538;2023-05-21T07:57:28;99600.25;;;20.28;68.19
66176;BME280;52977;44.816;20.538;2023-05-21T07:59:58;99569.72;;;20.14;66.14
66176;BME280;52977;44.816;20.538;2023-05-21T08:02:25;99570.13;;;20.20;65.25
66176;BME280;52977;44.816;20.538;2023-05-21T08:04:52;99590.41;;;20.42;65.37
66176;BME280;52977;44.816;20.538;2023-05-21T08:07:20;99588.41;;;20.42;62.48
66176;BME280;52977;44.816;20.538;2023-05-21T08:09:46;99562.59;;;20.20;63.65
66176;BME280;52977;44.816;20.538;2023-05-21T08:12:13;99574.91;;;20.30;63.54
66176;BME280;52977;44.816;20.538;2023-05-21T08:14:41;99576.50;;;20.31;62.71
66176;BME280;52977;44.816;20.538;2023-05-21T08:17:09;99505.97;;;20.00;62.93
66176;BME280;52977;44.816;20.538;2023-05-21T08:19:54;99578.88;;;20.40;62.03
66176;BME280;52977;44.816;20.538;2023-05-21T08:22:21;99598.75;;;20.60;61.79
66176;BME280;52977;44.816;20.538;2023-05-21T08:24:48;99592.41;;;20.63;62.08
66176;BME280;52977;44.816;20.538;2023-05-21T08:27:14;99596.81;;;20.75;62.55
66176;BME280;52977;44.816;20.538;2023-05-21T08:29:41;99552.38;;;20.39;62.10
66176;BME280;52977;44.816;20.538;2023-05-21T08:32:09;99591.63;;;20.66;61.96
66176;BME280;52977;44.816;20.538;2023-05-21T08:34:35;99552.38;;;20.39;62.40
66176;BME280;52977;44.816;20.538;2023-05-21T08:37:14;99588.44;;;20.60;63.68
66176;BME280;52977;44.816;20.538;2023-05-21T08:40:04;99559.91;;;20.56;63.29
66176;BME280;52977;44.816;20.538;2023-05-21T08:42:45;99591.28;;;20.78;63.74
66176;BME280;52977;44.816;20.538;2023-05-21T08:45:21;99586.94;;;20.81;64.47
66176;BME280;52977;44.816;20.538;2023-05-21T08:47:54;99592.47;;;20.88;64.10
66176;BME280;52977;44.816;20.538;2023-05-21T08:50:22;99545.28;;;20.56;64.23
66176;BME280;52977;44.816;20.538;2023-05-21T08:52:49;99574.25;;;20.80;63.03
66176;BME280;52977;44.816;20.538;2023-05-21T08:55:16;99594.47;;;20.91;63.49
66176;BME280;52977;44.816;20.538;2023-05-21T08:57:43;99554.81;;;20.73;62.98
66176;BME280;52977;44.816;20.538;2023-05-21T09:00:12;99592.88;;;21.08;63.29
66176;BME280;52977;44.816;20.538;2023-05-21T09:02:42;99571.50;;;21.02;61.06
66176;BME280;52977;44.816;20.538;2023-05-21T09:05:12;99590.50;;;21.14;61.06
66176;BME280;52977;44.816;20.538;2023-05-21T09:07:51;99596.06;;;21.17;62.06
66176;BME280;52977;44.816;20.538;2023-05-21T09:10:35;99577.41;;;21.18;61.82
66176;BME280;52977;44.816;20.538;2023-05-21T09:13:03;99588.53;;;21.32;61.67
66176;BME280;52977;44.816;20.538;2023-05-21T09:15:30;99597.66;;;21.29;59.46
66176;BME280;52977;44.816;20.538;2023-05-21T09:17:57;99581.38;;;21.28;60.08
66176;BME280;52977;44.816;20.538;2023-05-21T09:23:57;99561.16;;;21.27;60.34
66176;BME280;52977;44.816;20.538;2023-05-21T09:26:25;99536.97;;;21.21;58.33
66176;BME280;52977;44.816;20.538;2023-05-21T09:28:59;99510.03;;;21.14;59.50
66176;BME280;52977;44.816;20.538;2023-05-21T09:31:25;99571.84;;;21.68;57.62
66176;BME280;52977;44.816;20.538;2023-05-21T09:33:52;99572.22;;;21.67;57.93
66176;BME280;52977;44.816;20.538;2023-05-21T09:36:21;99529.00;;;21.44;57.14
66176;BME280;52977;44.816;20.538;2023-05-21T09:38:48;99531.78;;;21.55;57.05
66176;BME280;52977;44.816;20.538;2023-05-21T09:41:17;99505.22;;;21.40;57.11
66176;BME280;52977;44.816;20.538;2023-05-21T09:43:45;99565.84;;;21.74;57.94
66176;BME280;52977;44.816;20.538;2023-05-21T09:46:13;99575.78;;;21.64;58.00
66176;BME280;52977;44.816;20.538;2023-05-21T09:48:41;99545.69;;;21.41;57.72
66176;BME280;52977;44.816;20.538;2023-05-21T09:51:19;99576.22;;;21.55;54.97
66176;BME280;52977;44.816;20.538;2023-05-21T09:53:52;99571.44;;;21.56;55.82
66176;BME280;52977;44.816;20.538;2023-05-21T09:56:21;99567.50;;;21.53;55.59
66176;BME280;52977;44.816;20.538;2023-05-21T09:58:50;99579.75;;;21.66;55.43
66176;BME280;52977;44.816;20.538;2023-05-21T10:01:18;99561.53;;;21.58;55.21
66176;BME280;52977;44.816;20.538;2023-05-21T10:03:48;99530.59;;;21.53;54.05
66176;BME280;52977;44.816;20.538;2023-05-21T10:06:17;99574.13;;;21.95;53.57
66176;BME280;52977;44.816;20.538;2023-05-21T10:08:45;99530.09;;;21.87;55.56
66176;BME280;52977;44.816;20.538;2023-05-21T10:11:15;99570.38;;;22.31;53.86
66176;BME280;52977;44.816;20.538;2023-05-21T10:13:44;99565.63;;;22.31;54.23
66176;BME280;52977;44.816;20.538;2023-05-21T10:16:14;99539.84;;;22.20;54.67
66176;BME280;52977;44.816;20.538;2023-05-21T10:18:41;99564.00;;;22.38;53.43
66176;BME280;52977;44.816;20.538;2023-05-21T10:21:13;99521.59;;;22.19;53.81
66176;BME280;52977;44.816;20.538;2023-05-21T10:23:43;99571.44;;;22.59;51.96
66176;BME280;52977;44.816;20.538;2023-05-21T10:26:11;99543.25;;;22.53;52.02
66176;BME280;52977;44.816;20.538;2023-05-21T10:28:38;99530.59;;;22.45;52.30
66176;BME280;52977;44.816;20.538;2023-05-21T10:31:05;99523.44;;;22.44;52.73
66176;BME280;52977;44.816;20.538;2023-05-21T10:33:34;99512.72;;;22.46;52.91
66176;BME280;52977;44.816;20.538;2023-05-21T10:36:00;99556.63;;;22.76;52.42
66176;BME280;52977;44.816;20.538;2023-05-21T10:38:28;99559.75;;;22.82;51.42
66176;BME280;52977;44.816;20.538;2023-05-21T10:40:55;99548.63;;;22.78;49.84
66176;BME280;52977;44.816;20.538;2023-05-21T10:46:56;99520.91;;;22.67;52.42
66176;BME280;52977;44.816;20.538;2023-05-21T10:54:53;99546.97;;;22.88;48.74
66176;BME280;52977;44.816;20.538;2023-05-21T10:59:49;99528.25;;;22.92;51.19
66176;BME280;52977;44.816;20.538;2023-05-21T11:02:18;99477.97;;;22.72;50.82
66176;BME280;52977;44.816;20.538;2023-05-21T11:04:44;99541.63;;;23.12;50.07
66176;BME280;52977;44.816;20.538;2023-05-21T11:07:14;99534.09;;;23.12;50.58
66176;BME280;52977;44.816;20.538;2023-05-21T11:09:49;99539.25;;;23.10;50.44
66176;BME280;52977;44.816;20.538;2023-05-21T11:12:15;99529.31;;;23.13;48.64
66176;BME280;52977;44.816;20.538;2023-05-21T11:14:55;99519.81;;;23.07;50.54
66176;BME280;52977;44.816;20.538;2023-05-21T11:17:38;99483.72;;;22.92;50.07
66176;BME280;52977;44.816;20.538;2023-05-21T11:20:10;99508.56;;;23.17;49.00
66176;BME280;52977;44.816;20.538;2023-05-21T11:22:36;99478.06;;;23.03;48.90
66176;BME280;52977;44.816;20.538;2023-05-21T11:25:02;99467.38;;;22.98;48.95
66176;BME280;52977;44.816;20.538;2023-05-21T11:27:37;99523.03;;;23.43;50.44
66176;BME280;52977;44.816;20.538;2023-05-21T11:32:31;99513.75;;;23.53;48.52
66176;BME280;52977;44.816;20.538;2023-05-21T11:35:00;99492.00;;;23.45;49.99
66176;BME280;52977;44.816;20.538;2023-05-21T11:37:29;99507.16;;;23.75;48.04
66176;BME280;52977;44.816;20.538;2023-05-21T11:40:14;99501.81;;;23.91;46.29
66176;BME280;52977;44.816;20.538;2023-05-21T11:42:41;99479.56;;;23.84;46.94
66176;BME280;52977;44.816;20.538;2023-05-21T11:45:09;99503.72;;;23.98;46.10
66176;BME280;52977;44.816;20.538;2023-05-21T11:47:35;99476.81;;;23.80;44.82
66176;BME280;52977;44.816;20.538;2023-05-21T11:50:02;99495.91;;;23.82;44.52
66176;BME280;52977;44.816;20.538;2023-05-21T11:52:29;99505.66;;;24.01;44.47
66176;BME280;52977;44.816;20.538;2023-05-21T11:54:56;99456.88;;;23.82;43.75
66176;BME280;52977;44.816;20.538;2023-05-21T11:57:26;99497.34;;;24.25;44.77
66176;BME280;52977;44.816;20.538;2023-05-21T11:59:55;99485.19;;;24.38;44.05
66176;BME280;52977;44.816;20.538;2023-05-21T12:02:25;99479.38;;;24.53;44.86
66176;BME280;52977;44.816;20.538;2023-05-21T12:04:52;99461.56;;;24.47;43.74
66176;BME280;52977;44.816;20.538;2023-05-21T12:07:20;99477.63;;;24.66;44.16
66176;BME280;52977;44.816;20.538;2023-05-21T12:09:48;99471.00;;;24.80;41.97
66176;BME280;52977;44.816;20.538;2023-05-21T12:12:16;99471.13;;;24.97;41.33
66176;BME280;52977;44.816;20.538;2023-05-21T12:14:49;99461.72;;;24.87;40.14
66176;BME280;52977;44.816;20.538;2023-05-21T12:17:19;99480.66;;;24.99;41.61
66176;BME280;52977;44.816;20.538;2023-05-21T12:19:47;99484.78;;;24.91;38.62
66176;BME280;52977;44.816;20.538;2023-05-21T12:22:14;99481.56;;;24.93;38.81
66176;BME280;52977;44.816;20.538;2023-05-21T12:24:41;99468.53;;;24.86;39.73
66176;BME280;52977;44.816;20.538;2023-05-21T12:27:27;99479.22;;;25.11;40.62
66176;BME280;52977;44.816;20.538;2023-05-21T12:29:58;99465.59;;;24.93;39.31
66176;BME280;52977;44.816;20.538;2023-05-21T12:32:26;99472.59;;;25.25;38.91
66176;BME280;52977;44.816;20.538;2023-05-21T12:34:55;99461.13;;;25.19;40.03
66176;BME280;52977;44.816;20.538;2023-05-21T12:37:23;99448.66;;;25.04;39.75
66176;BME280;52977;44.816;20.538;2023-05-21T12:39:57;99464.53;;;25.07;39.49
66176;BME280;52977;44.816;20.538;2023-05-21T12:42:25;99469.81;;;25.25;38.73
66176;BME280;52977;44.816;20.538;2023-05-21T12:45:09;99464.47;;;25.34;39.15
66176;BME280;52977;44.816;20.538;2023-05-21T12:47:36;99457.72;;;25.32;39.08
66176;BME280;52977;44.816;20.538;2023-05-21T12:50:21;99465.03;;;25.46;40.71
66176;BME280;52977;44.816;20.538;2023-05-21T12:53:08;99449.22;;;25.39;40.77
66176;BME280;52977;44.816;20.538;2023-05-21T12:55:54;99456.09;;;25.34;40.93
66176;BME280;52977;44.816;20.538;2023-05-21T12:58:41;99449.16;;;25.42;41.62
66176;BME280;52977;44.816;20.538;2023-05-21T13:01:27;99434.19;;;25.33;43.55
66176;BME280;52977;44.816;20.538;2023-05-21T13:04:12;99452.91;;;25.72;42.86
66176;BME280;52977;44.816;20.538;2023-05-21T13:06:58;99448.66;;;26.04;39.90
66176;BME280;52977;44.816;20.538;2023-05-21T13:09:43;99415.69;;;25.96;41.05
66176;BME280;52977;44.816;20.538;2023-05-21T13:12:10;99441.13;;;26.01;38.67
66176;BME280;52977;44.816;20.538;2023-05-21T13:14:58;99432.84;;;25.94;39.43
66176;BME280;52977;44.816;20.538;2023-05-21T13:17:43;99407.56;;;25.65;38.70
66176;BME280;52977;44.816;20.538;2023-05-21T13:20:29;99429.44;;;25.50;38.28